Time,TemperatureF,DewpointF,PressureIn,WindDirection,WindDirectionDegrees,WindSpeedMPH,WindSpeedGustMPH,Humidity,HourlyPrecipIn,Conditions,Clouds,dailyrainin,SoftwareType,DateUTC
2013-01-30 00:21:00,30.0,21.0,30.30,South,190,1.0,3.0,70,0.00,,,-99.99,,2013-01-30 08:21:00,
2013-01-30 00:32:00,30.0,21.0,30.30,South,190,1.0,3.0,70,0.00,,,-99.99,,2013-01-30 08:32:00,
2013-01-30 00:42:00,30.0,21.0,30.30,South,190,1.0,3.0,70,0.00,,,-99.99,,2013-01-30 08:42:00,
2013-01-30 01:21:00,28.0,20.0,30.33,South,190,1.0,3.0,73,0.00,,,-99.99,,2013-01-30 09:21:00,
2013-01-30 01:32:00,28.0,20.0,30.33,South,190,1.0,3.0,73,0.00,,,-99.99,,2013-01-30 09:32:00,
2013-01-30 01:41:00,28.0,20.0,30.33,South,190,1.0,3.0,73,0.00,,,-99.99,,2013-01-30 09:41:00,
2013-01-30 02:21:00,28.0,21.0,30.34,South,190,1.0,2.0,74,0.00,,,-99.99,,2013-01-30 10:21:00,
2013-01-30 02:31:00,28.0,21.0,30.34,South,190,1.0,2.0,74,0.00,,,-99.99,,2013-01-30 10:31:00,
2013-01-30 02:41:00,28.0,21.0,30.34,South,190,1.0,2.0,74,0.00,,,-99.99,,2013-01-30 10:41:00,
2013-01-30 03:22:00,27.0,20.0,30.36,North,0,0.0,2.0,73,0.00,,,-99.99,,2013-01-30 11:22:00,
2013-01-30 03:32:00,27.0,20.0,30.36,North,0,0.0,2.0,73,0.00,,,-99.99,,2013-01-30 11:32:00,
2013-01-30 03:42:00,27.0,20.0,30.36,North,0,0.0,2.0,73,0.00,,,-99.99,,2013-01-30 11:42:00,
2013-01-30 04:22:00,27.0,20.0,30.39,North,0,0.0,2.0,73,0.00,,,-99.99,,2013-01-30 12:22:00,
2013-01-30 04:32:00,27.0,20.0,30.39,North,0,0.0,2.0,73,0.00,,,-99.99,,2013-01-30 12:32:00,
2013-01-30 04:42:00,27.0,20.0,30.39,North,0,0.0,2.0,73,0.00,,,-99.99,,2013-01-30 12:42:00,
2013-01-30 05:22:00,25.0,19.0,30.41,South,170,1.0,3.0,76,0.00,,,-99.99,,2013-01-30 13:22:00,
2013-01-30 05:32:00,25.0,19.0,30.41,South,170,1.0,3.0,76,0.00,,,-99.99,,2013-01-30 13:32:00,
2013-01-30 06:22:00,26.0,19.0,30.44,South,170,1.0,2.0,74,0.00,,,-99.99,,2013-01-30 14:22:00,
2013-01-30 06:32:00,26.0,19.0,30.44,South,170,1.0,2.0,74,0.00,,,-99.99,,2013-01-30 14:32:00,
2013-01-30 07:23:00,24.0,18.0,30.49,South,170,1.0,3.0,77,0.00,,,-99.99,,2013-01-30 15:23:00,
2013-01-30 07:33:00,24.0,18.0,30.49,South,170,1.0,3.0,77,0.00,,,-99.99,,2013-01-30 15:33:00,
2013-01-30 08:23:00,26.0,19.0,30.52,North,0,0.0,1.0,75,0.00,,,-99.99,,2013-01-30 16:23:00,
2013-01-30 08:32:00,26.0,19.0,30.52,North,0,0.0,1.0,75,0.00,,,-99.99,,2013-01-30 16:32:00,
2013-01-30 09:22:00,39.0,26.0,30.44,South,170,2.0,3.0,59,0.00,,,-99.99,,2013-01-30 17:22:00,
2013-01-30 09:32:00,39.0,26.0,30.44,South,170,2.0,3.0,59,0.00,,,-99.99,,2013-01-30 17:32:00,
2013-01-30 09:42:00,39.0,26.0,30.44,South,170,2.0,3.0,59,0.00,,,-99.99,,2013-01-30 17:42:00,
2013-01-30 10:22:00,44.0,19.0,30.42,ESE,110,2.0,5.0,37,0.00,,,-99.99,,2013-01-30 18:22:00,
2013-01-30 10:33:00,44.0,19.0,30.42,ESE,110,2.0,5.0,37,0.00,,,-99.99,,2013-01-30 18:33:00,
2013-01-30 10:42:00,44.0,19.0,30.42,ESE,110,2.0,5.0,37,0.00,,,-99.99,,2013-01-30 18:42:00,
2013-01-30 11:22:00,44.0,20.0,30.44,NE,50,3.0,6.0,38,0.00,,,-99.99,,2013-01-30 19:22:00,
2013-01-30 11:32:00,44.0,20.0,30.44,NE,50,3.0,6.0,38,0.00,,,-99.99,,2013-01-30 19:32:00,
2013-01-30 11:42:00,44.0,20.0,30.44,NE,50,3.0,6.0,38,0.00,,,-99.99,,2013-01-30 19:42:00,
2013-01-30 12:22:00,49.0,18.0,30.39,NE,50,1.0,3.0,29,0.00,,,-99.99,,2013-01-30 20:22:00,
2013-01-30 12:33:00,49.0,18.0,30.39,NE,50,1.0,3.0,29,0.00,,,-99.99,,2013-01-30 20:33:00,
2013-01-30 12:42:00,49.0,18.0,30.39,NE,50,1.0,3.0,29,0.00,,,-99.99,,2013-01-30 20:42:00,
2013-01-30 13:22:00,46.0,19.0,30.39,NE,50,4.0,7.0,34,0.00,,,-99.99,,2013-01-30 21:22:00,
2013-01-30 13:32:00,46.0,19.0,30.39,NE,50,4.0,7.0,34,0.00,,,-99.99,,2013-01-30 21:32:00,
2013-01-30 13:42:00,46.0,19.0,30.39,NE,50,4.0,7.0,34,0.00,,,-99.99,,2013-01-30 21:42:00,
2013-01-30 14:22:00,49.0,17.0,30.36,NNE,30,4.0,9.0,28,0.00,,,-99.99,,2013-01-30 22:22:00,
2013-01-30 14:32:00,49.0,17.0,30.36,NNE,30,4.0,9.0,28,0.00,,,-99.99,,2013-01-30 22:32:00,
2013-01-30 14:41:00,49.0,17.0,30.36,NNE,30,4.0,9.0,28,0.00,,,-99.99,,2013-01-30 22:41:00,
2013-01-30 15:22:00,51.0,18.0,30.34,NNE,30,3.0,11.0,27,0.00,,,-99.99,,2013-01-30 23:22:00,
2013-01-30 15:32:00,51.0,18.0,30.34,NNE,30,3.0,11.0,27,0.00,,,-99.99,,2013-01-30 23:32:00,
2013-01-30 15:42:00,51.0,18.0,30.34,NNE,30,3.0,11.0,27,0.00,,,-99.99,,2013-01-30 23:42:00,
2013-01-30 16:32:00,49.0,16.0,30.37,NNE,20,4.0,11.0,27,0.00,,,-99.99,,2013-01-31 00:32:00,
2013-01-30 16:42:00,49.0,16.0,30.37,NNE,20,4.0,11.0,27,0.00,,,-99.99,,2013-01-31 00:42:00,
2013-01-30 17:21:00,46.0,17.0,30.37,NNE,20,2.0,8.0,31,0.00,,,-99.99,,2013-01-31 01:21:00,
2013-01-30 17:31:00,46.0,17.0,30.37,NNE,20,2.0,8.0,31,0.00,,,-99.99,,2013-01-31 01:31:00,
2013-01-30 17:41:00,46.0,17.0,30.37,NNE,20,2.0,8.0,31,0.00,,,-99.99,,2013-01-31 01:41:00,
2013-01-30 18:21:00,38.0,21.0,30.45,North,0,0.0,2.0,49,0.00,,,-99.99,,2013-01-31 02:21:00,
2013-01-30 18:32:00,38.0,21.0,30.45,North,0,0.0,2.0,49,0.00,,,-99.99,,2013-01-31 02:32:00,
2013-01-30 18:41:00,38.0,21.0,30.45,North,0,0.0,2.0,49,0.00,,,-99.99,,2013-01-31 02:41:00,
2013-01-30 19:21:00,32.0,20.0,30.52,North,360,1.0,2.0,61,0.00,,,-99.99,,2013-01-31 03:21:00,
2013-01-30 19:32:00,32.0,20.0,30.52,North,360,1.0,2.0,61,0.00,,,-99.99,,2013-01-31 03:32:00,
2013-01-30 19:41:00,32.0,20.0,30.52,North,360,1.0,2.0,61,0.00,,,-99.99,,2013-01-31 03:41:00,
2013-01-30 20:22:00,29.0,19.0,30.46,North,0,0.0,1.0,67,0.00,,,-99.99,,2013-01-31 04:22:00,
2013-01-30 20:31:00,29.0,19.0,30.46,North,0,0.0,1.0,67,0.00,,,-99.99,,2013-01-31 04:31:00,
2013-01-30 20:41:00,29.0,19.0,30.46,North,0,0.0,1.0,67,0.00,,,-99.99,,2013-01-31 04:41:00,
2013-01-30 21:22:00,29.0,19.0,30.40,WSW,240,1.0,3.0,67,0.00,,,-99.99,,2013-01-31 05:22:00,
2013-01-30 21:31:00,29.0,19.0,30.40,WSW,240,1.0,3.0,67,0.00,,,-99.99,,2013-01-31 05:31:00,
2013-01-30 21:41:00,29.0,19.0,30.40,WSW,240,1.0,3.0,67,0.00,,,-99.99,,2013-01-31 05:41:00,